SXF weather

Berlin-Schönefeld Airport
Berlin, Brandenburg, Germany

Public forecast

Using degrees Celsius for public forecast. Weather courtesy of forecast.io.

METAR (pilot weather report)

Retrieved 2019/03/23 22:20 UTC (0 seconds ago):

EDDB 232220Z 35006KT 9999 SCT042 09/05 Q1029 NOSIG

TAF (pilot weather forecast)

Retrieved 2019/03/23 18:27 UTC (4 hours ago):

TAF TAF EDDB 231700Z 2318/2418 34006KT 9999 SCT030